sensor_id;sensor_type;location;lat;lon;timestamp;temperature;humidity
70214;DHT22;60138;55.808;37.078;2023-06-22T00:02:25;11.58;54.61
70214;DHT22;60138;55.808;37.078;2023-06-22T00:04:51;11.55;54.55
70214;DHT22;60138;55.808;37.078;2023-06-22T00:07:17;11.52;54.71
70214;DHT22;60138;55.808;37.078;2023-06-22T00:09:43;11.47;54.87
70214;DHT22;60138;55.808;37.078;2023-06-22T00:12:08;11.44;55.25
70214;DHT22;60138;55.808;37.078;2023-06-22T00:14:34;11.41;55.25
70214;DHT22;60138;55.808;37.078;2023-06-22T00:17:00;11.39;55.45
70214;DHT22;60138;55.808;37.078;2023-06-22T00:19:25;11.36;55.13
70214;DHT22;60138;55.808;37.078;2023-06-22T00:21:51;11.31;55.49
70214;DHT22;60138;55.808;37.078;2023-06-22T00:24:17;11.27;55.66
70214;DHT22;60138;55.808;37.078;2023-06-22T00:26:42;11.24;55.52
70214;DHT22;60138;55.808;37.078;2023-06-22T00:29:09;11.22;55.80
70214;DHT22;60138;55.808;37.078;2023-06-22T00:31:35;11.18;55.74
70214;DHT22;60138;55.808;37.078;2023-06-22T00:34:01;11.15;55.90
70214;DHT22;60138;55.808;37.078;2023-06-22T00:36:26;11.13;55.97
70214;DHT22;60138;55.808;37.078;2023-06-22T00:38:52;11.08;56.00
70214;DHT22;60138;55.808;37.078;2023-06-22T00:41:18;11.04;55.90
70214;DHT22;60138;55.808;37.078;2023-06-22T00:43:43;11.01;56.06
70214;DHT22;60138;55.808;37.078;2023-06-22T00:46:09;10.97;56.36
70214;DHT22;60138;55.808;37.078;2023-06-22T00:48:36;10.97;56.55
70214;DHT22;60138;55.808;37.078;2023-06-22T00:51:02;10.96;56.47
70214;DHT22;60138;55.808;37.078;2023-06-22T00:53:28;10.94;56.38
70214;DHT22;60138;55.808;37.078;2023-06-22T00:55:54;10.95;56.67
70214;DHT22;60138;55.808;37.078;2023-06-22T00:58:21;10.93;56.42
70214;DHT22;60138;55.808;37.078;2023-06-22T01:00:48;10.92;56.51
70214;DHT22;60138;55.808;37.078;2023-06-22T01:03:14;10.89;56.66
70214;DHT22;60138;55.808;37.078;2023-06-22T01:05:40;10.86;56.83
70214;DHT22;60138;55.808;37.078;2023-06-22T01:08:15;10.85;57.00
70214;DHT22;60138;55.808;37.078;2023-06-22T01:11:08;10.85;57.46
70214;DHT22;60138;55.808;37.078;2023-06-22T01:18:42;10.85;57.13
70214;DHT22;60138;55.808;37.078;2023-06-22T01:21:12;10.84;57.34
70214;DHT22;60138;55.808;37.078;2023-06-22T01:26:43;10.78;57.73
70214;DHT22;60138;55.808;37.078;2023-06-22T01:29:12;10.78;57.26
70214;DHT22;60138;55.808;37.078;2023-06-22T01:31:40;10.80;57.30
70214;DHT22;60138;55.808;37.078;2023-06-22T01:34:08;10.78;57.52
70214;DHT22;60138;55.808;37.078;2023-06-22T01:36:35;10.78;57.71
70214;DHT22;60138;55.808;37.078;2023-06-22T01:39:03;10.79;57.32
70214;DHT22;60138;55.808;37.078;2023-06-22T01:41:36;10.80;57.90
70214;DHT22;60138;55.808;37.078;2023-06-22T01:44:06;10.83;57.58
70214;DHT22;60138;55.808;37.078;2023-06-22T01:46:35;10.85;57.74
70214;DHT22;60138;55.808;37.078;2023-06-22T01:49:04;10.87;57.68
70214;DHT22;60138;55.808;37.078;2023-06-22T01:51:31;10.90;57.64
70214;DHT22;60138;55.808;37.078;2023-06-22T01:54:01;10.92;57.86
70214;DHT22;60138;55.808;37.078;2023-06-22T01:56:26;10.94;57.94
70214;DHT22;60138;55.808;37.078;2023-06-22T01:59:08;10.94;58.30
70214;DHT22;60138;55.808;37.078;2023-06-22T02:04:41;10.99;57.90
70214;DHT22;60138;55.808;37.078;2023-06-22T02:07:14;11.01;58.18
70214;DHT22;60138;55.808;37.078;2023-06-22T02:09:43;11.05;57.74
70214;DHT22;60138;55.808;37.078;2023-06-22T02:12:11;11.03;57.48
70214;DHT22;60138;55.808;37.078;2023-06-22T02:14:39;11.05;57.61
70214;DHT22;60138;55.808;37.078;2023-06-22T02:17:05;11.09;57.54
70214;DHT22;60138;55.808;37.078;2023-06-22T02:19:31;11.12;57.75
70214;DHT22;60138;55.808;37.078;2023-06-22T02:21:58;11.15;57.71
70214;DHT22;60138;55.808;37.078;2023-06-22T02:24:24;11.18;57.84
70214;DHT22;60138;55.808;37.078;2023-06-22T02:26:50;11.22;57.77
70214;DHT22;60138;55.808;37.078;2023-06-22T02:29:16;11.24;57.71
70214;DHT22;60138;55.808;37.078;2023-06-22T02:31:42;11.28;57.66
70214;DHT22;60138;55.808;37.078;2023-06-22T02:34:08;11.34;57.67
70214;DHT22;60138;55.808;37.078;2023-06-22T02:36:34;11.39;57.68
70214;DHT22;60138;55.808;37.078;2023-06-22T02:39:00;11.43;59.53
70214;DHT22;60138;55.808;37.078;2023-06-22T02:41:27;11.44;59.41
70214;DHT22;60138;55.808;37.078;2023-06-22T02:43:52;11.46;60.21
70214;DHT22;60138;55.808;37.078;2023-06-22T02:46:19;11.44;60.83
70214;DHT22;60138;55.808;37.078;2023-06-22T02:48:45;11.46;59.47
70214;DHT22;60138;55.808;37.078;2023-06-22T02:51:11;11.49;60.00
70214;DHT22;60138;55.808;37.078;2023-06-22T02:53:37;11.55;62.57
70214;DHT22;60138;55.808;37.078;2023-06-22T02:56:03;11.57;59.70
70214;DHT22;60138;55.808;37.078;2023-06-22T02:58:31;11.60;59.15
70214;DHT22;60138;55.808;37.078;2023-06-22T03:00:57;11.63;59.31
70214;DHT22;60138;55.808;37.078;2023-06-22T03:03:23;11.70;59.66
70214;DHT22;60138;55.808;37.078;2023-06-22T03:05:48;11.75;58.30
70214;DHT22;60138;55.808;37.078;2023-06-22T03:08:14;11.78;58.42
70214;DHT22;60138;55.808;37.078;2023-06-22T03:10:40;11.86;58.56
70214;DHT22;60138;55.808;37.078;2023-06-22T03:13:05;11.90;58.75
70214;DHT22;60138;55.808;37.078;2023-06-22T03:15:31;11.98;59.10
70214;DHT22;60138;55.808;37.078;2023-06-22T03:17:57;12.06;58.78
70214;DHT22;60138;55.808;37.078;2023-06-22T03:20:24;12.14;58.26
70214;DHT22;60138;55.808;37.078;2023-06-22T03:22:49;12.23;58.21
70214;DHT22;60138;55.808;37.078;2023-06-22T03:25:15;12.34;58.19
70214;DHT22;60138;55.808;37.078;2023-06-22T03:27:46;12.43;58.25
70214;DHT22;60138;55.808;37.078;2023-06-22T03:30:12;12.52;58.19
70214;DHT22;60138;55.808;37.078;2023-06-22T03:32:38;12.62;58.35
70214;DHT22;60138;55.808;37.078;2023-06-22T03:35:06;12.75;58.10
70214;DHT22;60138;55.808;37.078;2023-06-22T03:37:34;12.86;58.07
70214;DHT22;60138;55.808;37.078;2023-06-22T03:40:00;13.01;59.25
70214;DHT22;60138;55.808;37.078;2023-06-22T03:42:31;13.16;57.40
70214;DHT22;60138;55.808;37.078;2023-06-22T03:44:57;13.29;57.30
70214;DHT22;60138;55.808;37.078;2023-06-22T03:47:22;13.39;56.82
70214;DHT22;60138;55.808;37.078;2023-06-22T03:49:48;13.53;56.60
70214;DHT22;60138;55.808;37.078;2023-06-22T03:52:14;13.70;56.41
70214;DHT22;60138;55.808;37.078;2023-06-22T03:54:39;13.89;55.88
70214;DHT22;60138;55.808;37.078;2023-06-22T03:57:05;14.09;55.71
70214;DHT22;60138;55.808;37.078;2023-06-22T03:59:31;14.26;55.38
70214;DHT22;60138;55.808;37.078;2023-06-22T04:01:57;14.42;55.20
70214;DHT22;60138;55.808;37.078;2023-06-22T04:04:22;14.60;54.80
70214;DHT22;60138;55.808;37.078;2023-06-22T04:06:48;14.78;54.77
70214;DHT22;60138;55.808;37.078;2023-06-22T04:09:14;14.95;54.38
70214;DHT22;60138;55.808;37.078;2023-06-22T04:11:39;15.09;54.03
70214;DHT22;60138;55.808;37.078;2023-06-22T04:14:05;15.29;54.37
70214;DHT22;60138;55.808;37.078;2023-06-22T04:16:31;15.49;53.54
70214;DHT22;60138;55.808;37.078;2023-06-22T04:18:56;15.70;53.46
70214;DHT22;60138;55.808;37.078;2023-06-22T04:21:22;15.86;53.59
70214;DHT22;60138;55.808;37.078;2023-06-22T04:23:48;16.00;54.09
70214;DHT22;60138;55.808;37.078;2023-06-22T04:26:14;16.08;53.20
70214;DHT22;60138;55.808;37.078;2023-06-22T04:28:40;16.20;52.29
70214;DHT22;60138;55.808;37.078;2023-06-22T04:31:06;16.33;52.00
70214;DHT22;60138;55.808;37.078;2023-06-22T04:33:32;16.39;51.82
70214;DHT22;60138;55.808;37.078;2023-06-22T04:35:58;16.41;52.17
70214;DHT22;60138;55.808;37.078;2023-06-22T04:38:24;16.42;51.77
70214;DHT22;60138;55.808;37.078;2023-06-22T04:40:51;16.42;51.71
70214;DHT22;60138;55.808;37.078;2023-06-22T04:43:16;16.43;51.39
70214;DHT22;60138;55.808;37.078;2023-06-22T04:45:42;16.44;51.12
70214;DHT22;60138;55.808;37.078;2023-06-22T04:48:08;16.44;50.91
70214;DHT22;60138;55.808;37.078;2023-06-22T04:50:34;16.47;51.24
70214;DHT22;60138;55.808;37.078;2023-06-22T04:53:00;16.50;51.07
70214;DHT22;60138;55.808;37.078;2023-06-22T04:55:25;16.51;51.83
70214;DHT22;60138;55.808;37.078;2023-06-22T04:57:51;16.55;51.22
70214;DHT22;60138;55.808;37.078;2023-06-22T05:00:20;16.57;50.36
70214;DHT22;60138;55.808;37.078;2023-06-22T05:02:46;16.63;51.04
70214;DHT22;60138;55.808;37.078;2023-06-22T05:05:13;16.72;50.67
70214;DHT22;60138;55.808;37.078;2023-06-22T05:07:44;16.78;50.59
70214;DHT22;60138;55.808;37.078;2023-06-22T05:10:11;16.82;50.28
70214;DHT22;60138;55.808;37.078;2023-06-22T05:12:37;16.87;51.19
70214;DHT22;60138;55.808;37.078;2023-06-22T05:15:03;17.00;50.58
70214;DHT22;60138;55.808;37.078;2023-06-22T05:17:31;17.13;50.60
70214;DHT22;60138;55.808;37.078;2023-06-22T05:19:57;17.24;50.35
70214;DHT22;60138;55.808;37.078;2023-06-22T05:22:23;17.33;49.34
70214;DHT22;60138;55.808;37.078;2023-06-22T05:24:48;17.30;49.06
70214;DHT22;60138;55.808;37.078;2023-06-22T05:27:14;17.24;49.04
70214;DHT22;60138;55.808;37.078;2023-06-22T05:29:40;17.19;48.92
70214;DHT22;60138;55.808;37.078;2023-06-22T05:32:06;17.18;49.18
70214;DHT22;60138;55.808;37.078;2023-06-22T05:34:32;17.24;49.22
70214;DHT22;60138;55.808;37.078;2023-06-22T05:36:58;17.28;49.14
70214;DHT22;60138;55.808;37.078;2023-06-22T05:39:24;17.46;49.17
70214;DHT22;60138;55.808;37.078;2023-06-22T05:41:50;17.68;48.50
70214;DHT22;60138;55.808;37.078;2023-06-22T05:44:15;17.82;47.98
70214;DHT22;60138;55.808;37.078;2023-06-22T05:46:42;17.93;48.31
70214;DHT22;60138;55.808;37.078;2023-06-22T05:49:08;18.06;47.05
70214;DHT22;60138;55.808;37.078;2023-06-22T05:51:34;18.09;46.96
70214;DHT22;60138;55.808;37.078;2023-06-22T05:54:00;18.15;46.67
70214;DHT22;60138;55.808;37.078;2023-06-22T05:56:25;18.21;46.55
70214;DHT22;60138;55.808;37.078;2023-06-22T05:58:51;18.30;46.48
70214;DHT22;60138;55.808;37.078;2023-06-22T06:01:17;18.41;46.09
70214;DHT22;60138;55.808;37.078;2023-06-22T06:03:43;18.64;43.60
70214;DHT22;60138;55.808;37.078;2023-06-22T06:06:08;18.82;45.38
70214;DHT22;60138;55.808;37.078;2023-06-22T06:08:34;18.99;44.88
70214;DHT22;60138;55.808;37.078;2023-06-22T06:11:00;19.13;44.64
70214;DHT22;60138;55.808;37.078;2023-06-22T06:13:25;19.22;44.79
70214;DHT22;60138;55.808;37.078;2023-06-22T06:15:51;19.28;44.61
70214;DHT22;60138;55.808;37.078;2023-06-22T06:18:17;19.41;43.46
70214;DHT22;60138;55.808;37.078;2023-06-22T06:20:43;19.59;42.11
70214;DHT22;60138;55.808;37.078;2023-06-22T06:23:08;19.80;40.80
70214;DHT22;60138;55.808;37.078;2023-06-22T06:25:34;19.98;40.81
70214;DHT22;60138;55.808;37.078;2023-06-22T06:28:00;20.18;42.46
70214;DHT22;60138;55.808;37.078;2023-06-22T06:30:25;20.34;41.33
70214;DHT22;60138;55.808;37.078;2023-06-22T06:32:51;20.54;40.84
70214;DHT22;60138;55.808;37.078;2023-06-22T06:35:17;20.77;40.27
70214;DHT22;60138;55.808;37.078;2023-06-22T06:37:45;21.06;40.39
70214;DHT22;60138;55.808;37.078;2023-06-22T06:40:12;21.35;39.26
70214;DHT22;60138;55.808;37.078;2023-06-22T06:42:39;21.60;40.11
70214;DHT22;60138;55.808;37.078;2023-06-22T06:45:05;21.84;40.13
70214;DHT22;60138;55.808;37.078;2023-06-22T06:47:31;21.97;38.69
70214;DHT22;60138;55.808;37.078;2023-06-22T06:49:57;22.07;37.44
70214;DHT22;60138;55.808;37.078;2023-06-22T06:52:22;22.08;37.82
70214;DHT22;60138;55.808;37.078;2023-06-22T06:54:48;22.13;37.53
70214;DHT22;60138;55.808;37.078;2023-06-22T06:57:14;22.19;38.63
70214;DHT22;60138;55.808;37.078;2023-06-22T06:59:39;22.27;38.60
70214;DHT22;60138;55.808;37.078;2023-06-22T07:02:05;22.36;38.62
70214;DHT22;60138;55.808;37.078;2023-06-22T07:04:31;22.42;38.66
70214;DHT22;60138;55.808;37.078;2023-06-22T07:06:58;22.50;38.73
70214;DHT22;60138;55.808;37.078;2023-06-22T07:09:24;22.65;38.17
70214;DHT22;60138;55.808;37.078;2023-06-22T07:11:50;22.82;38.32
70214;DHT22;60138;55.808;37.078;2023-06-22T07:14:15;22.98;37.54
70214;DHT22;60138;55.808;37.078;2023-06-22T07:16:41;23.14;36.94
70214;DHT22;60138;55.808;37.078;2023-06-22T07:19:07;23.28;37.84
70214;DHT22;60138;55.808;37.078;2023-06-22T07:21:33;23.39;36.51
70214;DHT22;60138;55.808;37.078;2023-06-22T07:23:58;23.43;36.85
70214;DHT22;60138;55.808;37.078;2023-06-22T07:26:24;23.41;36.68
70214;DHT22;60138;55.808;37.078;2023-06-22T07:28:50;23.45;37.24
70214;DHT22;60138;55.808;37.078;2023-06-22T07:31:16;23.53;37.43
70214;DHT22;60138;55.808;37.078;2023-06-22T07:33:41;23.53;37.05
70214;DHT22;60138;55.808;37.078;2023-06-22T07:36:07;23.58;37.24
70214;DHT22;60138;55.808;37.078;2023-06-22T07:38:33;23.57;36.53
70214;DHT22;60138;55.808;37.078;2023-06-22T07:40:59;23.61;37.23
70214;DHT22;60138;55.808;37.078;2023-06-22T07:43:25;23.69;36.91
70214;DHT22;60138;55.808;37.078;2023-06-22T07:45:51;23.79;36.56
70214;DHT22;60138;55.808;37.078;2023-06-22T07:48:16;23.83;37.16
70214;DHT22;60138;55.808;37.078;2023-06-22T07:50:42;23.89;36.96
70214;DHT22;60138;55.808;37.078;2023-06-22T07:53:08;23.90;36.90
70214;DHT22;60138;55.808;37.078;2023-06-22T07:55:34;23.85;35.53
70214;DHT22;60138;55.808;37.078;2023-06-22T07:58:01;23.74;35.72
70214;DHT22;60138;55.808;37.078;2023-06-22T08:00:27;23.79;36.49
70214;DHT22;60138;55.808;37.078;2023-06-22T08:02:52;23.86;36.34
70214;DHT22;60138;55.808;37.078;2023-06-22T08:05:18;24.01;36.66
70214;DHT22;60138;55.808;37.078;2023-06-22T08:07:44;24.14;36.06
70214;DHT22;60138;55.808;37.078;2023-06-22T08:10:13;24.15;34.63
70214;DHT22;60138;55.808;37.078;2023-06-22T08:12:39;24.18;36.30
70214;DHT22;60138;55.808;37.078;2023-06-22T08:15:06;24.01;35.50
70214;DHT22;60138;55.808;37.078;2023-06-22T08:17:32;23.75;35.18
70214;DHT22;60138;55.808;37.078;2023-06-22T08:19:58;23.41;36.11
70214;DHT22;60138;55.808;37.078;2023-06-22T08:22:24;23.13;36.95
70214;DHT22;60138;55.808;37.078;2023-06-22T08:24:50;22.88;37.07
70214;DHT22;60138;55.808;37.078;2023-06-22T08:27:16;22.72;36.90
70214;DHT22;60138;55.808;37.078;2023-06-22T08:29:42;22.64;37.47
70214;DHT22;60138;55.808;37.078;2023-06-22T08:32:09;22.58;40.42
70214;DHT22;60138;55.808;37.078;2023-06-22T08:34:35;22.58;37.30
70214;DHT22;60138;55.808;37.078;2023-06-22T08:37:01;22.44;36.58
70214;DHT22;60138;55.808;37.078;2023-06-22T08:39:27;22.38;37.33
70214;DHT22;60138;55.808;37.078;2023-06-22T08:41:52;22.38;38.00
70214;DHT22;60138;55.808;37.078;2023-06-22T08:44:19;22.42;37.95
70214;DHT22;60138;55.808;37.078;2023-06-22T08:46:44;22.44;37.56
70214;DHT22;60138;55.808;37.078;2023-06-22T08:49:10;22.48;37.87
70214;DHT22;60138;55.808;37.078;2023-06-22T08:51:36;22.54;37.83
70214;DHT22;60138;55.808;37.078;2023-06-22T08:54:05;22.57;37.89
70214;DHT22;60138;55.808;37.078;2023-06-22T08:56:30;22.62;37.60
70214;DHT22;60138;55.808;37.078;2023-06-22T08:58:56;22.68;38.11
70214;DHT22;60138;55.808;37.078;2023-06-22T09:01:22;22.77;37.89
70214;DHT22;60138;55.808;37.078;2023-06-22T09:03:48;22.77;37.43
70214;DHT22;60138;55.808;37.078;2023-06-22T09:06:13;22.81;37.79
70214;DHT22;60138;55.808;37.078;2023-06-22T09:08:39;22.88;37.64
70214;DHT22;60138;55.808;37.078;2023-06-22T09:11:05;23.00;37.57
70214;DHT22;60138;55.808;37.078;2023-06-22T09:13:31;23.14;37.54
70214;DHT22;60138;55.808;37.078;2023-06-22T09:15:56;23.23;37.63
70214;DHT22;60138;55.808;37.078;2023-06-22T09:18:22;23.34;37.09
70214;DHT22;60138;55.808;37.078;2023-06-22T09:20:48;23.39;36.50
70214;DHT22;60138;55.808;37.078;2023-06-22T09:23:14;23.44;36.10
70214;DHT22;60138;55.808;37.078;2023-06-22T09:25:39;23.51;36.18
70214;DHT22;60138;55.808;37.078;2023-06-22T09:28:05;23.59;35.51
70214;DHT22;60138;55.808;37.078;2023-06-22T09:30:31;23.72;34.86
70214;DHT22;60138;55.808;37.078;2023-06-22T09:32:56;23.79;35.00
70214;DHT22;60138;55.808;37.078;2023-06-22T09:35:22;23.88;34.77
70214;DHT22;60138;55.808;37.078;2023-06-22T09:37:48;23.99;34.01
70214;DHT22;60138;55.808;37.078;2023-06-22T09:40:13;24.25;35.40
70214;DHT22;60138;55.808;37.078;2023-06-22T09:42:40;24.45;34.74
70214;DHT22;60138;55.808;37.078;2023-06-22T09:45:06;24.58;34.93
70214;DHT22;60138;55.808;37.078;2023-06-22T09:47:33;24.63;33.70
70214;DHT22;60138;55.808;37.078;2023-06-22T09:49:59;24.58;32.89
70214;DHT22;60138;55.808;37.078;2023-06-22T09:52:25;24.51;34.76
70214;DHT22;60138;55.808;37.078;2023-06-22T09:54:51;24.54;35.01
70214;DHT22;60138;55.808;37.078;2023-06-22T09:57:16;24.51;34.70
70214;DHT22;60138;55.808;37.078;2023-06-22T09:59:42;24.46;34.15
70214;DHT22;60138;55.808;37.078;2023-06-22T10:02:08;24.43;34.99
70214;DHT22;60138;55.808;37.078;2023-06-22T10:04:37;24.56;35.09
70214;DHT22;60138;55.808;37.078;2023-06-22T10:07:03;24.71;33.86
70214;DHT22;60138;55.808;37.078;2023-06-22T10:09:29;24.64;33.34
70214;DHT22;60138;55.808;37.078;2023-06-22T10:11:55;24.62;33.44
70214;DHT22;60138;55.808;37.078;2023-06-22T10:14:21;24.74;33.86
70214;DHT22;60138;55.808;37.078;2023-06-22T10:16:48;24.93;33.92
70214;DHT22;60138;55.808;37.078;2023-06-22T10:19:14;25.02;33.49
70214;DHT22;60138;55.808;37.078;2023-06-22T10:21:40;24.85;33.54
70214;DHT22;60138;55.808;37.078;2023-06-22T10:24:05;24.77;33.83
70214;DHT22;60138;55.808;37.078;2023-06-22T10:26:35;24.80;34.68
70214;DHT22;60138;55.808;37.078;2023-06-22T10:29:02;24.95;34.37
70214;DHT22;60138;55.808;37.078;2023-06-22T10:31:28;25.12;34.51
70214;DHT22;60138;55.808;37.078;2023-06-22T10:33:54;25.22;31.57
70214;DHT22;60138;55.808;37.078;2023-06-22T10:36:21;25.21;32.48
70214;DHT22;60138;55.808;37.078;2023-06-22T10:38:47;25.15;33.15
70214;DHT22;60138;55.808;37.078;2023-06-22T10:41:13;25.08;33.34
70214;DHT22;60138;55.808;37.078;2023-06-22T10:43:39;25.22;32.64
70214;DHT22;60138;55.808;37.078;2023-06-22T10:46:06;25.23;32.91
70214;DHT22;60138;55.808;37.078;2023-06-22T10:48:31;25.30;33.68
70214;DHT22;60138;55.808;37.078;2023-06-22T10:50:57;25.37;33.73
70214;DHT22;60138;55.808;37.078;2023-06-22T10:53:23;25.47;33.45
70214;DHT22;60138;55.808;37.078;2023-06-22T10:55:48;25.53;28.55
70214;DHT22;60138;55.808;37.078;2023-06-22T10:58:14;25.44;30.39
70214;DHT22;60138;55.808;37.078;2023-06-22T11:00:40;25.46;32.14
70214;DHT22;60138;55.808;37.078;2023-06-22T11:03:06;25.56;31.64
70214;DHT22;60138;55.808;37.078;2023-06-22T11:05:31;25.62;31.55
70214;DHT22;60138;55.808;37.078;2023-06-22T11:07:57;25.79;31.77
70214;DHT22;60138;55.808;37.078;2023-06-22T11:10:23;25.93;31.27
70214;DHT22;60138;55.808;37.078;2023-06-22T11:12:49;26.11;31.88
70214;DHT22;60138;55.808;37.078;2023-06-22T11:15:14;26.35;31.88
70214;DHT22;60138;55.808;37.078;2023-06-22T11:17:40;26.21;28.36
70214;DHT22;60138;55.808;37.078;2023-06-22T11:20:06;26.12;26.84
70214;DHT22;60138;55.808;37.078;2023-06-22T11:22:32;26.17;29.25
70214;DHT22;60138;55.808;37.078;2023-06-22T11:24:58;26.19;29.34
70214;DHT22;60138;55.808;37.078;2023-06-22T11:27:24;26.30;28.36
70214;DHT22;60138;55.808;37.078;2023-06-22T11:29:49;26.52;30.53
70214;DHT22;60138;55.808;37.078;2023-06-22T11:32:15;26.75;28.33
70214;DHT22;60138;55.808;37.078;2023-06-22T11:34:41;26.80;27.16
70214;DHT22;60138;55.808;37.078;2023-06-22T11:37:07;26.94;29.48
70214;DHT22;60138;55.808;37.078;2023-06-22T11:39:32;27.20;27.95
70214;DHT22;60138;55.808;37.078;2023-06-22T11:41:58;27.31;28.83
70214;DHT22;60138;55.808;37.078;2023-06-22T11:44:24;27.36;29.42
70214;DHT22;60138;55.808;37.078;2023-06-22T11:46:49;27.45;29.96
70214;DHT22;60138;55.808;37.078;2023-06-22T11:49:15;29.21;26.81
70214;DHT22;60138;55.808;37.078;2023-06-22T11:51:41;30.70;27.88
70214;DHT22;60138;55.808;37.078;2023-06-22T11:54:07;33.08;26.81
70214;DHT22;60138;55.808;37.078;2023-06-22T11:56:33;35.10;24.59
70214;DHT22;60138;55.808;37.078;2023-06-22T11:58:58;35.86;21.23
70214;DHT22;60138;55.808;37.078;2023-06-22T12:01:24;36.43;22.81
70214;DHT22;60138;55.808;37.078;2023-06-22T12:03:50;34.79;21.27
70214;DHT22;60138;55.808;37.078;2023-06-22T12:06:16;33.74;24.73
70214;DHT22;60138;55.808;37.078;2023-06-22T12:08:41;34.92;21.98
70214;DHT22;60138;55.808;37.078;2023-06-22T12:11:07;34.88;19.83
70214;DHT22;60138;55.808;37.078;2023-06-22T12:13:33;34.56;16.39
70214;DHT22;60138;55.808;37.078;2023-06-22T12:15:58;33.44;22.31
70214;DHT22;60138;55.808;37.078;2023-06-22T12:18:24;34.06;21.18
70214;DHT22;60138;55.808;37.078;2023-06-22T12:20:50;36.28;17.09
70214;DHT22;60138;55.808;37.078;2023-06-22T12:23:16;37.20;21.54
70214;DHT22;60138;55.808;37.078;2023-06-22T12:25:42;36.48;20.94
70214;DHT22;60138;55.808;37.078;2023-06-22T12:28:07;35.28;22.43
70214;DHT22;60138;55.808;37.078;2023-06-22T12:30:33;34.29;22.92
70214;DHT22;60138;55.808;37.078;2023-06-22T12:32:59;33.57;21.73
70214;DHT22;60138;55.808;37.078;2023-06-22T12:35:24;36.21;23.39
70214;DHT22;60138;55.808;37.078;2023-06-22T12:37:50;38.73;20.72
70214;DHT22;60138;55.808;37.078;2023-06-22T12:40:16;39.35;13.44
70214;DHT22;60138;55.808;37.078;2023-06-22T12:42:42;40.13;18.75
70214;DHT22;60138;55.808;37.078;2023-06-22T12:45:08;40.87;18.49
70214;DHT22;60138;55.808;37.078;2023-06-22T12:47:34;41.12;18.31
70214;DHT22;60138;55.808;37.078;2023-06-22T12:50:00;39.79;18.96
70214;DHT22;60138;55.808;37.078;2023-06-22T12:52:25;38.48;20.02
70214;DHT22;60138;55.808;37.078;2023-06-22T12:54:51;37.63;19.02
70214;DHT22;60138;55.808;37.078;2023-06-22T12:57:17;39.42;19.97
70214;DHT22;60138;55.808;37.078;2023-06-22T12:59:43;40.75;18.41
70214;DHT22;60138;55.808;37.078;2023-06-22T13:02:08;39.38;17.41
70214;DHT22;60138;55.808;37.078;2023-06-22T13:04:34;39.12;18.62
70214;DHT22;60138;55.808;37.078;2023-06-22T13:07:00;37.27;17.41
70214;DHT22;60138;55.808;37.078;2023-06-22T13:09:26;36.09;19.59
70214;DHT22;60138;55.808;37.078;2023-06-22T13:11:51;37.29;19.07
70214;DHT22;60138;55.808;37.078;2023-06-22T13:14:17;38.96;18.67
70214;DHT22;60138;55.808;37.078;2023-06-22T13:16:43;40.62;17.51
70214;DHT22;60138;55.808;37.078;2023-06-22T13:19:09;42.05;13.97
70214;DHT22;60138;55.808;37.078;2023-06-22T13:21:34;42.94;14.33
70214;DHT22;60138;55.808;37.078;2023-06-22T13:24:00;43.13;14.75
70214;DHT22;60138;55.808;37.078;2023-06-22T13:26:26;43.79;12.56
70214;DHT22;60138;55.808;37.078;2023-06-22T13:28:52;44.50;15.39
70214;DHT22;60138;55.808;37.078;2023-06-22T13:31:18;44.95;15.38
70214;DHT22;60138;55.808;37.078;2023-06-22T13:33:43;45.45;6.48
70214;DHT22;60138;55.808;37.078;2023-06-22T13:36:09;44.60;9.45
70214;DHT22;60138;55.808;37.078;2023-06-22T13:38:35;44.54;13.37
70214;DHT22;60138;55.808;37.078;2023-06-22T13:41:01;45.14;13.53
70214;DHT22;60138;55.808;37.078;2023-06-22T13:43:27;44.88;12.99
70214;DHT22;60138;55.808;37.078;2023-06-22T13:45:53;45.56;14.15
70214;DHT22;60138;55.808;37.078;2023-06-22T13:48:18;45.76;11.52
70214;DHT22;60138;55.808;37.078;2023-06-22T13:50:44;46.19;14.15
70214;DHT22;60138;55.808;37.078;2023-06-22T13:53:10;46.81;13.84
70214;DHT22;60138;55.808;37.078;2023-06-22T13:55:35;47.27;13.55
70214;DHT22;60138;55.808;37.078;2023-06-22T13:58:01;47.51;12.97
70214;DHT22;60138;55.808;37.078;2023-06-22T14:00:27;46.66;13.45
70214;DHT22;60138;55.808;37.078;2023-06-22T14:02:53;46.32;6.07
70214;DHT22;60138;55.808;37.078;2023-06-22T14:05:19;45.71;11.96
70214;DHT22;60138;55.808;37.078;2023-06-22T14:07:45;45.18;10.98
70214;DHT22;60138;55.808;37.078;2023-06-22T14:10:11;45.33;12.71
70214;DHT22;60138;55.808;37.078;2023-06-22T14:12:37;45.79;10.86
70214;DHT22;60138;55.808;37.078;2023-06-22T14:15:03;45.05;11.15
70214;DHT22;60138;55.808;37.078;2023-06-22T14:17:31;45.03;12.47
70214;DHT22;60138;55.808;37.078;2023-06-22T14:19:57;45.00;12.97
70214;DHT22;60138;55.808;37.078;2023-06-22T14:22:22;45.34;12.86
70214;DHT22;60138;55.808;37.078;2023-06-22T14:24:48;45.24;12.20
70214;DHT22;60138;55.808;37.078;2023-06-22T14:27:15;45.59;12.34
70214;DHT22;60138;55.808;37.078;2023-06-22T14:29:41;45.89;10.34
70214;DHT22;60138;55.808;37.078;2023-06-22T14:32:08;45.98;11.81
70214;DHT22;60138;55.808;37.078;2023-06-22T14:34:34;44.46;9.21
70214;DHT22;60138;55.808;37.078;2023-06-22T14:37:00;42.67;9.35
70214;DHT22;60138;55.808;37.078;2023-06-22T14:39:26;41.96;11.78
70214;DHT22;60138;55.808;37.078;2023-06-22T14:41:52;42.24;10.55
70214;DHT22;60138;55.808;37.078;2023-06-22T14:44:17;42.84;10.91
70214;DHT22;60138;55.808;37.078;2023-06-22T14:46:43;43.48;10.38
70214;DHT22;60138;55.808;37.078;2023-06-22T14:49:09;43.84;10.58
70214;DHT22;60138;55.808;37.078;2023-06-22T14:51:34;43.61;11.52
70214;DHT22;60138;55.808;37.078;2023-06-22T14:54:00;43.49;10.63
70214;DHT22;60138;55.808;37.078;2023-06-22T14:56:26;42.45;6.17
70214;DHT22;60138;55.808;37.078;2023-06-22T14:58:51;40.69;10.61
70214;DHT22;60138;55.808;37.078;2023-06-22T15:01:18;40.48;11.75
70214;DHT22;60138;55.808;37.078;2023-06-22T15:03:44;40.74;8.51
70214;DHT22;60138;55.808;37.078;2023-06-22T15:06:10;40.50;11.65
70214;DHT22;60138;55.808;37.078;2023-06-22T15:08:40;40.13;11.46
70214;DHT22;60138;55.808;37.078;2023-06-22T15:11:06;40.04;11.60
70214;DHT22;60138;55.808;37.078;2023-06-22T15:13:32;40.17;10.53
70214;DHT22;60138;55.808;37.078;2023-06-22T15:15:57;40.39;9.27
70214;DHT22;60138;55.808;37.078;2023-06-22T15:18:23;40.36;9.92
70214;DHT22;60138;55.808;37.078;2023-06-22T15:20:49;40.58;12.68
70214;DHT22;60138;55.808;37.078;2023-06-22T15:23:14;40.89;13.01